createdAt,value
2016-12-03T00:00:33.591Z,0
2016-12-03T00:01:33.648Z,0
2016-12-03T00:02:33.704Z,0
2016-12-03T00:03:33.763Z,0
2016-12-03T00:04:33.816Z,0
2016-12-03T00:05:33.878Z,0
2016-12-03T00:06:33.920Z,0
2016-12-03T00:07:34.007Z,0
2016-12-03T00:08:34.065Z,0
2016-12-03T00:09:34.097Z,0
2016-12-03T00:10:34.159Z,0
2016-12-03T00:11:34.217Z,0
2016-12-03T00:12:34.251Z,0
2016-12-03T00:13:34.328Z,0
2016-12-03T00:14:34.369Z,0
2016-12-03T00:15:34.434Z,0
2016-12-03T00:16:34.506Z,0
2016-12-03T00:17:34.557Z,0
2016-12-03T00:18:34.615Z,0
2016-12-03T00:19:34.681Z,0
2016-12-03T00:20:34.721Z,0
2016-12-03T00:21:34.786Z,0
2016-12-03T00:22:34.850Z,0
2016-12-03T00:23:34.875Z,0
2016-12-03T00:24:34.949Z,0
2016-12-03T00:25:35.001Z,0
2016-12-03T00:26:35.059Z,0
2016-12-03T00:27:35.099Z,0
2016-12-03T00:28:35.185Z,0
2016-12-03T00:29:35.220Z,0
2016-12-03T00:30:35.276Z,0
2016-12-03T00:31:35.327Z,0
2016-12-03T00:32:35.389Z,0
2016-12-03T00:33:35.442Z,0
2016-12-03T00:34:35.486Z,0
2016-12-03T00:35:35.554Z,0
2016-12-03T00:36:35.602Z,0
2016-12-03T00:37:35.683Z,0
2016-12-03T00:38:35.729Z,0
2016-12-03T00:39:35.768Z,0
2016-12-03T00:40:35.831Z,0
2016-12-03T00:41:35.897Z,0
2016-12-03T00:42:35.970Z,0
2016-12-03T00:43:36.027Z,0
2016-12-03T00:44:36.064Z,0
2016-12-03T00:45:36.127Z,0
2016-12-03T00:46:36.188Z,0
2016-12-03T00:47:36.240Z,0
2016-12-03T00:48:36.288Z,0
2016-12-03T00:49:36.342Z,0
2016-12-03T00:50:36.387Z,0
2016-12-03T00:51:36.470Z,0
2016-12-03T00:52:36.529Z,0
2016-12-03T00:53:36.563Z,0
2016-12-03T00:54:36.628Z,0
2016-12-03T00:55:36.702Z,0
2016-12-03T00:56:36.725Z,0
2016-12-03T00:57:36.802Z,0
2016-12-03T00:58:36.855Z,0
2016-12-03T00:59:36.929Z,0
2016-12-03T01:00:36.984Z,0
2016-12-03T01:01:37.026Z,0
2016-12-03T01:02:37.078Z,0
2016-12-03T01:03:37.475Z,0
2016-12-03T01:04:37.382Z,0
2016-12-03T01:05:37.454Z,0
2016-12-03T01:06:37.330Z,0
2016-12-03T01:07:37.342Z,0
2016-12-03T01:08:37.436Z,0
2016-12-03T01:09:37.469Z,0
2016-12-03T01:10:37.539Z,0
2016-12-03T01:11:37.595Z,0
2016-12-03T01:12:37.639Z,0
2016-12-03T01:13:37.694Z,0
2016-12-03T01:14:37.746Z,0
2016-12-03T01:15:37.816Z,0
2016-12-03T01:16:37.847Z,0
2016-12-03T01:17:37.942Z,0
2016-12-03T01:18:37.989Z,0
2016-12-03T01:19:38.032Z,0
2016-12-03T01:20:38.110Z,0
2016-12-03T01:21:38.156Z,0
2016-12-03T01:22:38.195Z,0
2016-12-03T01:23:38.275Z,0
2016-12-03T01:24:38.315Z,0
2016-12-03T01:25:38.377Z,0
2016-12-03T01:26:38.413Z,0
2016-12-03T01:27:38.505Z,0
2016-12-03T01:28:38.549Z,0
2016-12-03T01:29:38.616Z,0
2016-12-03T01:30:38.664Z,0
2016-12-03T01:31:38.707Z,0
2016-12-03T01:32:38.983Z,0
2016-12-03T01:33:38.823Z,0
2016-12-03T01:34:39.097Z,0
2016-12-03T01:35:38.938Z,0
2016-12-03T01:36:39.009Z,0
2016-12-03T01:37:39.060Z,0
2016-12-03T01:38:39.108Z,0
2016-12-03T01:39:39.171Z,0
2016-12-03T01:40:39.213Z,0
2016-12-03T01:41:39.285Z,0
2016-12-03T01:42:39.321Z,0
2016-12-03T01:43:39.378Z,0
2016-12-03T01:44:39.426Z,0
2016-12-03T01:45:39.500Z,0
2016-12-03T01:46:39.537Z,0
2016-12-03T01:47:39.595Z,0
2016-12-03T01:48:39.649Z,0
2016-12-03T01:49:39.726Z,0
2016-12-03T01:50:39.788Z,0
2016-12-03T01:51:39.832Z,0
2016-12-03T01:52:39.911Z,0
2016-12-03T01:53:39.962Z,0
2016-12-03T01:54:40.005Z,0
2016-12-03T01:55:40.105Z,0
2016-12-03T01:56:40.112Z,0
2016-12-03T01:57:40.188Z,0
2016-12-03T01:58:40.226Z,0
2016-12-03T01:59:40.495Z,0
2016-12-03T02:00:40.555Z,0
2016-12-03T02:01:40.426Z,0
2016-12-03T02:02:40.461Z,0
2016-12-03T02:03:40.515Z,0
2016-12-03T02:04:40.570Z,0
2016-12-03T02:05:40.619Z,0
2016-12-03T02:06:40.686Z,0
2016-12-03T02:07:40.734Z,0
2016-12-03T02:08:40.778Z,0
2016-12-03T02:09:40.833Z,0
2016-12-03T02:10:40.900Z,0
2016-12-03T02:11:40.958Z,0
2016-12-03T02:12:41.003Z,0
2016-12-03T02:13:41.073Z,0
2016-12-03T02:14:41.127Z,0
2016-12-03T02:15:41.187Z,0
2016-12-03T02:16:41.240Z,0
2016-12-03T02:17:41.318Z,0
2016-12-03T02:18:41.668Z,0
2016-12-03T02:19:41.399Z,0
2016-12-03T02:20:41.482Z,0
2016-12-03T02:21:41.568Z,0
2016-12-03T02:22:41.602Z,0
2016-12-03T02:23:41.640Z,0
2016-12-03T02:24:41.695Z,0
2016-12-03T02:25:41.760Z,0
2016-12-03T02:26:41.808Z,0
2016-12-03T02:27:42.057Z,0
2016-12-03T02:28:41.937Z,0
2016-12-03T02:29:42.162Z,0
2016-12-03T02:30:42.039Z,0
2016-12-03T02:31:42.086Z,0
2016-12-03T02:32:42.142Z,0
2016-12-03T02:33:42.182Z,0
2016-12-03T02:34:42.267Z,0
2016-12-03T02:35:42.318Z,0
2016-12-03T02:36:42.370Z,0
2016-12-03T02:37:42.418Z,0
2016-12-03T02:38:42.485Z,0
2016-12-03T02:39:42.540Z,0
2016-12-03T02:40:42.603Z,0
2016-12-03T02:41:42.649Z,0
2016-12-03T02:42:42.718Z,0
2016-12-03T02:43:42.761Z,0
2016-12-03T02:44:42.836Z,0
2016-12-03T02:45:42.859Z,0
2016-12-03T02:46:42.934Z,0
2016-12-03T02:47:42.985Z,0
2016-12-03T02:48:43.039Z,0
2016-12-03T02:49:43.119Z,0
2016-12-03T02:50:43.160Z,0
2016-12-03T02:51:43.203Z,0
2016-12-03T02:52:43.267Z,0
2016-12-03T02:53:43.338Z,0
2016-12-03T02:54:43.364Z,0
2016-12-03T02:55:43.625Z,0
2016-12-03T02:56:43.687Z,0
2016-12-03T02:57:43.772Z,0
2016-12-03T02:58:43.592Z,0
2016-12-03T02:59:43.669Z,0
2016-12-03T03:00:43.740Z,0
2016-12-03T03:01:43.790Z,0
2016-12-03T03:02:43.816Z,0
2016-12-03T03:03:43.903Z,0
2016-12-03T03:04:43.932Z,0
2016-12-03T03:05:44.006Z,0
2016-12-03T03:06:44.048Z,0
2016-12-03T03:07:44.119Z,0
2016-12-03T03:08:44.184Z,0
2016-12-03T03:09:44.226Z,0
2016-12-03T03:10:44.289Z,0
2016-12-03T03:11:44.324Z,0
2016-12-03T03:12:44.411Z,0
2016-12-03T03:13:44.435Z,0
2016-12-03T03:14:44.494Z,0
2016-12-03T03:15:44.568Z,0
2016-12-03T03:16:44.627Z,0
2016-12-03T03:17:44.693Z,0
2016-12-03T03:18:44.739Z,0
2016-12-03T03:19:44.790Z,0
2016-12-03T03:20:44.842Z,0
2016-12-03T03:21:44.891Z,0
2016-12-03T03:22:45.149Z,0
2016-12-03T03:23:45.216Z,0
2016-12-03T03:24:45.058Z,0
2016-12-03T03:25:45.134Z,0
2016-12-03T03:26:45.177Z,0
2016-12-03T03:27:45.263Z,0
2016-12-03T03:28:45.302Z,0
2016-12-03T03:29:45.339Z,0
2016-12-03T03:30:45.421Z,0
2016-12-03T03:31:45.460Z,0
2016-12-03T03:32:45.528Z,0
2016-12-03T03:33:45.601Z,0
2016-12-03T03:34:45.628Z,0
2016-12-03T03:35:45.703Z,0
2016-12-03T03:36:45.753Z,0
2016-12-03T03:37:45.815Z,0
2016-12-03T03:38:45.880Z,0
2016-12-03T03:39:45.926Z,0
2016-12-03T03:40:45.957Z,0
2016-12-03T03:41:46.024Z,0
2016-12-03T03:42:46.097Z,0
2016-12-03T03:43:46.133Z,0
2016-12-03T03:44:46.199Z,0
2016-12-03T03:45:46.263Z,0
2016-12-03T03:46:46.292Z,0
2016-12-03T03:47:46.382Z,0
2016-12-03T03:48:46.418Z,0
2016-12-03T03:49:46.467Z,0
2016-12-03T03:50:46.545Z,0
2016-12-03T03:51:46.579Z,0
2016-12-03T03:52:46.642Z,0
2016-12-03T03:53:46.706Z,0
2016-12-03T03:54:46.756Z,0
2016-12-03T03:55:46.834Z,0
2016-12-03T03:56:46.860Z,0
2016-12-03T03:57:46.942Z,0
2016-12-03T03:58:46.988Z,0
2016-12-03T03:59:47.044Z,0
2016-12-03T04:00:47.079Z,0
2016-12-03T04:01:47.164Z,0
2016-12-03T04:02:47.220Z,0
2016-12-03T04:03:47.267Z,0
2016-12-03T04:04:47.317Z,0
2016-12-03T04:05:47.381Z,0
2016-12-03T04:06:47.449Z,0
2016-12-03T04:07:47.487Z,0
2016-12-03T04:08:47.557Z,0
2016-12-03T04:09:47.593Z,0
2016-12-03T04:10:47.685Z,0
2016-12-03T04:11:47.740Z,0
2016-12-03T04:12:47.761Z,0
2016-12-03T04:13:47.818Z,0
2016-12-03T04:14:47.865Z,0
2016-12-03T04:15:47.949Z,0
2016-12-03T04:16:48.001Z,0
2016-12-03T04:17:48.047Z,0
2016-12-03T04:18:48.097Z,0
2016-12-03T04:19:48.151Z,0
2016-12-03T04:20:48.229Z,0
2016-12-03T04:21:48.263Z,0
2016-12-03T04:22:48.346Z,0
2016-12-03T04:23:48.395Z,0
2016-12-03T04:24:48.429Z,0
2016-12-03T04:25:48.510Z,0
2016-12-03T04:26:48.572Z,0
2016-12-03T04:27:48.616Z,0
2016-12-03T04:28:48.653Z,0
2016-12-03T04:29:48.732Z,0
2016-12-03T04:30:48.781Z,0
2016-12-03T04:31:48.837Z,0
2016-12-03T04:32:48.895Z,0
2016-12-03T04:33:48.941Z,0
2016-12-03T04:34:49.012Z,0
2016-12-03T04:35:49.069Z,0
2016-12-03T04:36:49.121Z,0
2016-12-03T04:37:49.161Z,0
2016-12-03T04:38:49.246Z,0
2016-12-03T04:39:49.303Z,0
2016-12-03T04:40:49.337Z,0
2016-12-03T04:41:49.420Z,0
2016-12-03T04:42:49.454Z,0
2016-12-03T04:43:49.507Z,0
2016-12-03T04:44:49.580Z,0
2016-12-03T04:45:49.640Z,0
2016-12-03T04:46:49.685Z,0
2016-12-03T04:47:49.745Z,0
2016-12-03T04:48:49.828Z,0
2016-12-03T04:49:49.874Z,0
2016-12-03T04:50:49.913Z,0
2016-12-03T04:51:49.964Z,0
2016-12-03T04:52:50.005Z,0
2016-12-03T04:53:50.073Z,0
2016-12-03T04:54:50.117Z,0
2016-12-03T04:55:50.186Z,0
2016-12-03T04:56:50.288Z,0
2016-12-03T04:57:50.316Z,0
2016-12-03T04:58:50.363Z,0
2016-12-03T04:59:50.426Z,0
2016-12-03T05:00:50.473Z,0
2016-12-03T05:01:50.526Z,0
2016-12-03T05:02:50.574Z,0
2016-12-03T05:03:50.631Z,0
2016-12-03T05:04:50.685Z,0
2016-12-03T05:05:50.769Z,0
2016-12-03T05:06:50.806Z,0
2016-12-03T05:07:50.855Z,0
2016-12-03T05:08:50.904Z,0
2016-12-03T05:09:50.966Z,0
2016-12-03T05:10:51.031Z,0
2016-12-03T05:11:51.082Z,0
2016-12-03T05:12:51.142Z,0
2016-12-03T05:13:51.206Z,0
2016-12-03T05:14:51.257Z,0
2016-12-03T05:15:51.318Z,0
2016-12-03T05:16:51.366Z,0
2016-12-03T05:17:51.432Z,0
2016-12-03T05:18:51.500Z,0
2016-12-03T05:19:51.520Z,0
2016-12-03T05:20:51.606Z,0
2016-12-03T05:21:51.653Z,0
2016-12-03T05:22:51.702Z,0
2016-12-03T05:23:51.779Z,0
2016-12-03T05:24:51.821Z,0
2016-12-03T05:25:51.872Z,0
2016-12-03T05:26:51.930Z,0
2016-12-03T05:27:51.997Z,0
2016-12-03T05:28:52.048Z,0
2016-12-03T05:29:52.105Z,0
2016-12-03T05:30:52.148Z,0
2016-12-03T05:31:52.215Z,0
2016-12-03T05:32:52.281Z,0
2016-12-03T05:33:52.329Z,0
2016-12-03T05:34:52.403Z,0
2016-12-03T05:35:52.434Z,0
2016-12-03T05:36:52.509Z,0
2016-12-03T05:37:52.547Z,0
2016-12-03T05:38:52.623Z,0
2016-12-03T05:39:52.659Z,0
2016-12-03T05:40:52.714Z,0
2016-12-03T05:41:52.774Z,0
2016-12-03T05:42:52.841Z,0
2016-12-03T05:43:52.902Z,0
2016-12-03T05:44:52.941Z,0
2016-12-03T05:45:52.990Z,0
2016-12-03T05:46:53.053Z,0
2016-12-03T05:47:53.103Z,0
2016-12-03T05:48:53.172Z,0
2016-12-03T05:49:53.224Z,0
2016-12-03T05:50:53.280Z,0
2016-12-03T05:51:53.338Z,0
2016-12-03T05:52:53.400Z,0
2016-12-03T05:53:53.468Z,0
2016-12-03T05:54:53.527Z,0
2016-12-03T05:55:53.552Z,0
2016-12-03T05:56:53.618Z,0
2016-12-03T05:57:53.691Z,0
2016-12-03T05:58:53.712Z,0
2016-12-03T05:59:53.771Z,0
2016-12-03T06:00:53.867Z,0
2016-12-03T06:01:53.919Z,0
2016-12-03T06:02:53.945Z,0
2016-12-03T06:03:53.997Z,0
2016-12-03T06:04:54.051Z,0
2016-12-03T06:05:54.121Z,0
2016-12-03T06:06:54.197Z,0
2016-12-03T06:07:54.236Z,0
2016-12-03T06:08:54.305Z,0
2016-12-03T06:09:54.353Z,0
2016-12-03T06:10:54.409Z,0
2016-12-03T06:11:54.477Z,0
2016-12-03T06:12:54.519Z,0
2016-12-03T06:13:54.577Z,0
2016-12-03T06:14:54.635Z,0
2016-12-03T06:15:54.668Z,0
2016-12-03T06:16:54.741Z,0
2016-12-03T06:17:54.801Z,0
2016-12-03T06:18:54.857Z,0
2016-12-03T06:19:54.919Z,0
2016-12-03T06:20:54.969Z,4
2016-12-03T06:21:55.010Z,4
2016-12-03T06:22:55.075Z,4
2016-12-03T06:23:55.138Z,0
2016-12-03T06:24:55.181Z,4
2016-12-03T06:25:55.242Z,4
2016-12-03T06:26:55.310Z,4
2016-12-03T06:27:55.697Z,4
2016-12-03T06:28:55.422Z,4
2016-12-03T06:29:55.468Z,8
2016-12-03T06:30:55.510Z,4
2016-12-03T06:31:55.595Z,8
2016-12-03T06:32:55.622Z,12
2016-12-03T06:33:55.715Z,8
2016-12-03T06:34:55.752Z,12
2016-12-03T06:35:55.806Z,12
2016-12-03T06:36:55.845Z,16
2016-12-03T06:37:55.936Z,16
2016-12-03T06:38:55.995Z,16
2016-12-03T06:39:56.028Z,20
2016-12-03T06:40:56.073Z,20
2016-12-03T06:41:56.145Z,24
2016-12-03T06:42:56.203Z,24
2016-12-03T06:43:56.241Z,28
2016-12-03T06:44:56.325Z,32
2016-12-03T06:45:56.384Z,32
2016-12-03T06:46:56.426Z,36
2016-12-03T06:47:56.479Z,40
2016-12-03T06:48:56.533Z,52
2016-12-03T06:49:56.595Z,64
2016-12-03T06:50:56.653Z,76
2016-12-03T06:51:56.716Z,88
2016-12-03T06:52:56.776Z,92
2016-12-03T06:53:56.811Z,100
2016-12-03T06:54:56.885Z,112
2016-12-03T06:55:56.939Z,120
2016-12-03T06:56:56.978Z,128
2016-12-03T06:57:57.051Z,140
2016-12-03T06:58:57.080Z,148
2016-12-03T06:59:57.136Z,164
2016-12-03T07:00:57.190Z,172
2016-12-03T07:01:57.555Z,180
2016-12-03T07:02:57.331Z,180
2016-12-03T07:03:57.371Z,184
2016-12-03T07:04:57.442Z,184
2016-12-03T07:05:57.496Z,192
2016-12-03T07:06:57.544Z,204
2016-12-03T07:07:57.603Z,220
2016-12-03T07:08:57.654Z,240
2016-12-03T07:09:57.694Z,256
2016-12-03T07:10:57.769Z,272
2016-12-03T07:11:57.816Z,284
2016-12-03T07:12:57.867Z,296
2016-12-03T07:13:57.953Z,304
2016-12-03T07:14:57.994Z,316
2016-12-03T07:15:58.063Z,324
2016-12-03T07:16:58.108Z,332
2016-12-03T07:17:58.178Z,344
2016-12-03T07:18:58.217Z,348
2016-12-03T07:19:58.271Z,356
2016-12-03T07:20:58.337Z,364
2016-12-03T07:21:58.388Z,380
2016-12-03T07:22:58.446Z,384
2016-12-03T07:23:58.478Z,396
2016-12-03T07:24:58.553Z,408
2016-12-03T07:25:58.606Z,416
2016-12-03T07:26:58.682Z,424
2016-12-03T07:27:58.723Z,436
2016-12-03T07:28:58.779Z,448
2016-12-03T07:29:58.825Z,460
2016-12-03T07:30:58.874Z,464
2016-12-03T07:31:58.946Z,476
2016-12-03T07:32:58.989Z,484
2016-12-03T07:33:59.063Z,496
2016-12-03T07:34:59.132Z,508
2016-12-03T07:35:59.187Z,516
2016-12-03T07:36:59.230Z,524
2016-12-03T07:37:59.289Z,528
2016-12-03T07:38:59.342Z,540
2016-12-03T07:39:59.392Z,548
2016-12-03T07:40:59.450Z,552
2016-12-03T07:41:59.492Z,560
2016-12-03T07:42:59.572Z,568
2016-12-03T07:43:59.604Z,572
2016-12-03T07:44:59.677Z,580
2016-12-03T07:46:00.051Z,588
2016-12-03T07:46:59.803Z,592
2016-12-03T07:47:59.852Z,600
2016-12-03T07:48:59.904Z,608
2016-12-03T07:49:59.956Z,616
2016-12-03T07:51:00.009Z,620
2016-12-03T07:52:00.104Z,624
2016-12-03T07:53:00.129Z,628
2016-12-03T07:54:00.193Z,632
2016-12-03T07:55:00.254Z,636
2016-12-03T07:56:00.293Z,640
2016-12-03T07:57:00.335Z,648
2016-12-03T07:58:00.406Z,656
2016-12-03T07:59:00.475Z,668
2016-12-03T08:00:00.516Z,676
2016-12-03T08:01:00.567Z,684
2016-12-03T08:02:00.631Z,684
2016-12-03T08:03:00.696Z,688
2016-12-03T08:04:00.744Z,692
2016-12-03T08:05:00.805Z,696
2016-12-03T08:06:00.867Z,708
2016-12-03T08:07:00.920Z,716
2016-12-03T08:08:00.961Z,720
2016-12-03T08:09:01.043Z,732
2016-12-03T08:10:01.080Z,740
2016-12-03T08:11:01.156Z,748
2016-12-03T08:12:01.201Z,756
2016-12-03T08:13:01.247Z,760
2016-12-03T08:14:01.330Z,772
2016-12-03T08:15:01.378Z,776
2016-12-03T08:16:01.743Z,784
2016-12-03T08:17:01.485Z,792
2016-12-03T08:18:01.530Z,800
2016-12-03T08:19:01.610Z,808
2016-12-03T08:20:01.661Z,764
2016-12-03T08:21:01.712Z,788
2016-12-03T08:22:01.755Z,840
2016-12-03T08:23:01.817Z,840
2016-12-03T08:24:01.891Z,832
2016-12-03T08:25:01.940Z,836
2016-12-03T08:26:01.983Z,860
2016-12-03T08:27:02.041Z,860
2016-12-03T08:28:02.412Z,864
2016-12-03T08:29:02.176Z,868
2016-12-03T08:30:02.213Z,868
2016-12-03T08:31:02.593Z,872
2016-12-03T08:32:02.328Z,880
2016-12-03T08:33:02.404Z,856
2016-12-03T08:34:02.449Z,872
2016-12-03T08:35:02.501Z,892
2016-12-03T08:36:02.566Z,892
2016-12-03T08:37:02.615Z,896
2016-12-03T08:38:02.658Z,896
2016-12-03T08:39:02.708Z,900
2016-12-03T08:40:02.784Z,900
2016-12-03T08:41:02.842Z,908
2016-12-03T08:42:02.904Z,912
2016-12-03T08:43:02.956Z,912
2016-12-03T08:44:03.019Z,916
2016-12-03T08:45:03.068Z,912
2016-12-03T08:46:03.103Z,916
2016-12-03T08:47:03.207Z,916
2016-12-03T08:48:03.217Z,920
2016-12-03T08:49:03.285Z,916
2016-12-03T08:50:03.360Z,920
2016-12-03T08:51:03.404Z,924
2016-12-03T08:52:03.465Z,928
2016-12-03T08:53:03.503Z,928
2016-12-03T08:54:03.597Z,940
2016-12-03T08:55:03.636Z,944
2016-12-03T08:56:03.676Z,948
2016-12-03T08:57:03.745Z,948
2016-12-03T08:58:03.792Z,956
2016-12-03T08:59:03.860Z,960
2016-12-03T09:00:03.924Z,964
2016-12-03T09:01:03.979Z,972
2016-12-03T09:02:04.039Z,972
2016-12-03T09:03:04.106Z,972
2016-12-03T09:04:04.150Z,976
2016-12-03T09:05:04.206Z,976
2016-12-03T09:06:04.251Z,976
2016-12-03T09:07:04.337Z,980
2016-12-03T09:08:04.359Z,980
2016-12-03T09:09:04.434Z,980
2016-12-03T09:10:04.498Z,976
2016-12-03T09:11:04.542Z,976
2016-12-03T09:12:04.604Z,976
2016-12-03T09:13:04.644Z,976
2016-12-03T09:14:04.699Z,976
2016-12-03T09:15:04.792Z,980
2016-12-03T09:16:04.839Z,980
2016-12-03T09:17:04.890Z,976
2016-12-03T09:18:04.941Z,976
2016-12-03T09:19:04.996Z,976
2016-12-03T09:20:05.076Z,984
2016-12-03T09:21:05.129Z,988
2016-12-03T09:22:05.180Z,992
2016-12-03T09:23:05.245Z,1000
2016-12-03T09:24:05.268Z,1000
2016-12-03T09:25:05.358Z,1008
2016-12-03T09:26:05.392Z,1012
2016-12-03T09:27:05.461Z,1020
2016-12-03T09:28:05.531Z,1020
2016-12-03T09:29:05.576Z,1028
2016-12-03T09:30:05.625Z,1036
2016-12-03T09:31:05.684Z,1040
2016-12-03T09:32:05.746Z,1040
2016-12-03T09:33:05.778Z,1044
2016-12-03T09:34:05.835Z,1048
2016-12-03T09:35:05.907Z,1056
2016-12-03T09:36:05.967Z,1064
2016-12-03T09:37:06.025Z,1064
2016-12-03T09:38:06.095Z,1072
2016-12-03T09:39:06.127Z,1080
2016-12-03T09:40:06.201Z,1088
2016-12-03T09:41:06.233Z,1096
2016-12-03T09:42:06.309Z,1104
2016-12-03T09:43:06.348Z,1112
2016-12-03T09:44:06.416Z,1116
2016-12-03T09:45:06.483Z,1136
2016-12-03T09:46:06.527Z,1148
2016-12-03T09:47:06.585Z,1148
2016-12-03T09:48:06.646Z,1148
2016-12-03T09:49:06.714Z,1156
2016-12-03T09:50:06.758Z,1164
2016-12-03T09:51:06.819Z,1168
2016-12-03T09:52:06.876Z,1172
2016-12-03T09:53:06.944Z,1176
2016-12-03T09:54:06.977Z,1184
2016-12-03T09:55:07.024Z,1188
2016-12-03T09:56:07.109Z,1200
2016-12-03T09:57:07.167Z,1204
2016-12-03T09:58:07.221Z,1212
2016-12-03T09:59:07.301Z,1216
2016-12-03T10:00:07.338Z,1228
2016-12-03T10:01:07.374Z,1232
2016-12-03T10:02:07.456Z,1236
2016-12-03T10:03:07.501Z,1244
2016-12-03T10:04:07.554Z,1248
2016-12-03T10:05:07.628Z,1256
2016-12-03T10:06:07.670Z,1260
2016-12-03T10:07:07.719Z,1268
2016-12-03T10:08:07.771Z,1272
2016-12-03T10:09:07.843Z,1280
2016-12-03T10:10:07.891Z,1288
2016-12-03T10:11:07.951Z,1288
2016-12-03T10:12:08.028Z,1296
2016-12-03T10:13:08.062Z,1300
2016-12-03T10:14:08.125Z,1304
2016-12-03T10:15:08.203Z,1312
2016-12-03T10:16:08.238Z,1320
2016-12-03T10:17:08.296Z,1324
2016-12-03T10:18:08.362Z,1324
2016-12-03T10:19:08.414Z,1328
2016-12-03T10:20:08.471Z,1332
2016-12-03T10:21:08.520Z,1336
2016-12-03T10:22:08.578Z,1340
2016-12-03T10:23:08.660Z,1340
2016-12-03T10:24:08.715Z,1348
2016-12-03T10:25:08.757Z,1348
2016-12-03T10:26:08.798Z,1348
2016-12-03T10:27:08.880Z,1352
2016-12-03T10:28:08.921Z,1352
2016-12-03T10:29:08.967Z,1356
2016-12-03T10:30:09.057Z,1360
2016-12-03T10:31:09.085Z,1368
2016-12-03T10:32:09.156Z,1368
2016-12-03T10:33:09.207Z,1368
2016-12-03T10:34:09.260Z,1372
2016-12-03T10:35:09.321Z,1376
2016-12-03T10:36:09.366Z,1380
2016-12-03T10:37:09.438Z,1376
2016-12-03T10:38:09.839Z,1380
2016-12-03T10:39:09.540Z,1384
2016-12-03T10:40:09.599Z,1384
2016-12-03T10:41:09.680Z,1384
2016-12-03T10:42:09.715Z,1384
2016-12-03T10:43:09.801Z,1388
2016-12-03T10:44:09.823Z,1388
2016-12-03T10:45:09.894Z,1392
2016-12-03T10:46:09.954Z,1392
2016-12-03T10:47:10.331Z,1396
2016-12-03T10:48:10.073Z,1392
2016-12-03T10:49:10.130Z,1388
2016-12-03T10:50:10.219Z,1392
2016-12-03T10:51:10.236Z,1388
2016-12-03T10:52:10.302Z,1388
2016-12-03T10:53:10.345Z,1384
2016-12-03T10:54:10.434Z,1388
2016-12-03T10:55:10.490Z,1392
2016-12-03T10:56:10.538Z,1392
2016-12-03T10:57:10.624Z,1396
2016-12-03T10:58:10.633Z,1396
2016-12-03T10:59:10.690Z,1400
2016-12-03T11:00:10.749Z,1404
2016-12-03T11:01:10.822Z,1400
2016-12-03T11:02:10.868Z,1400
2016-12-03T11:03:10.950Z,1400
2016-12-03T11:04:10.991Z,1404
2016-12-03T11:05:11.038Z,1404
2016-12-03T11:06:11.096Z,1412
2016-12-03T11:07:11.162Z,1416
2016-12-03T11:08:11.227Z,1428
2016-12-03T11:09:11.290Z,1432
2016-12-03T11:10:11.328Z,1436
2016-12-03T11:11:11.389Z,1444
2016-12-03T11:12:11.437Z,1448
2016-12-03T11:13:11.499Z,1456
2016-12-03T11:14:11.539Z,1464
2016-12-03T11:15:11.606Z,1472
2016-12-03T11:16:11.689Z,1480
2016-12-03T11:17:11.737Z,1480
2016-12-03T11:18:11.804Z,1488
2016-12-03T11:19:11.842Z,1492
2016-12-03T11:20:11.878Z,1500
2016-12-03T11:21:11.951Z,1508
2016-12-03T11:22:12.024Z,1516
2016-12-03T11:23:12.075Z,1520
2016-12-03T11:24:12.117Z,1524
2016-12-03T11:25:12.187Z,1536
2016-12-03T11:26:12.256Z,1536
2016-12-03T11:27:12.289Z,1544
2016-12-03T11:28:12.373Z,1552
2016-12-03T11:29:12.429Z,1560
2016-12-03T11:30:12.467Z,1572
2016-12-03T11:31:12.564Z,1576
2016-12-03T11:32:12.578Z,1580
2016-12-03T11:33:12.645Z,1584
2016-12-03T11:34:12.696Z,1588
2016-12-03T11:35:13.081Z,1600
2016-12-03T11:36:12.818Z,1604
2016-12-03T11:37:12.892Z,1612
2016-12-03T11:38:12.929Z,1616
2016-12-03T11:39:12.986Z,1624
2016-12-03T11:40:13.045Z,1632
2016-12-03T11:41:13.102Z,1640
2016-12-03T11:42:13.155Z,1644
2016-12-03T11:43:13.226Z,1652
2016-12-03T11:44:13.253Z,1660
2016-12-03T11:45:13.315Z,1668
2016-12-03T11:46:13.384Z,1676
2016-12-03T11:47:13.437Z,1684
2016-12-03T11:48:13.485Z,1692
2016-12-03T11:49:13.548Z,1696
2016-12-03T11:50:13.617Z,1708
2016-12-03T11:51:13.674Z,1716
2016-12-03T11:52:13.730Z,1720
2016-12-03T11:53:13.768Z,1728
2016-12-03T11:54:13.831Z,1736
2016-12-03T11:55:13.895Z,1740
2016-12-03T11:56:13.952Z,1748
2016-12-03T11:57:14.016Z,1756
2016-12-03T11:58:14.080Z,1764
2016-12-03T11:59:14.135Z,1768
2016-12-03T12:00:14.200Z,1780
2016-12-03T12:01:14.234Z,1784
2016-12-03T12:02:14.319Z,1788
2016-12-03T12:03:14.341Z,1796
2016-12-03T12:04:14.404Z,1800
2016-12-03T12:05:14.491Z,1808
2016-12-03T12:06:14.547Z,1808
2016-12-03T12:07:14.590Z,1816
2016-12-03T12:08:14.640Z,1820
2016-12-03T12:09:14.706Z,1824
2016-12-03T12:10:14.764Z,1824
2016-12-03T12:11:14.831Z,1828
2016-12-03T12:12:14.894Z,1832
2016-12-03T12:13:14.948Z,1836
2016-12-03T12:14:14.991Z,1840
2016-12-03T12:15:15.031Z,1840
2016-12-03T12:16:15.109Z,1844
2016-12-03T12:17:15.148Z,1844
2016-12-03T12:18:15.223Z,1848
2016-12-03T12:19:15.291Z,1852
2016-12-03T12:20:15.653Z,1852
2016-12-03T12:21:15.380Z,1856
2016-12-03T12:22:15.437Z,1860
2016-12-03T12:23:15.493Z,1864
2016-12-03T12:24:15.547Z,1864
2016-12-03T12:25:15.614Z,1868
2016-12-03T12:26:15.692Z,1872
2016-12-03T12:27:15.747Z,1876
2016-12-03T12:28:15.783Z,1876
2016-12-03T12:29:15.839Z,1880
2016-12-03T12:30:15.904Z,1880
2016-12-03T12:31:15.971Z,1884
2016-12-03T12:32:16.024Z,1884
2016-12-03T12:33:16.080Z,1884
2016-12-03T12:34:16.140Z,1880
2016-12-03T12:35:16.204Z,1876
2016-12-03T12:36:16.254Z,1868
2016-12-03T12:37:16.627Z,1864
2016-12-03T12:38:16.389Z,1852
2016-12-03T12:39:16.448Z,1844
2016-12-03T12:40:16.497Z,1832
2016-12-03T12:41:16.547Z,1824
2016-12-03T12:42:16.608Z,1812
2016-12-03T12:43:16.658Z,1796
2016-12-03T12:44:16.723Z,1788
2016-12-03T12:45:16.764Z,1776
2016-12-03T12:46:16.846Z,1764
2016-12-03T12:47:16.899Z,1756
2016-12-03T12:48:16.966Z,1740
2016-12-03T12:49:17.011Z,1728
2016-12-03T12:50:17.048Z,1716
2016-12-03T12:51:17.109Z,1704
2016-12-03T12:52:17.161Z,1688
2016-12-03T12:53:17.259Z,1676
2016-12-03T12:54:17.290Z,1664
2016-12-03T12:55:17.342Z,1648
2016-12-03T12:56:17.409Z,1640
2016-12-03T12:57:17.469Z,1628
2016-12-03T12:58:17.527Z,1620
2016-12-03T12:59:17.576Z,1612
2016-12-03T13:00:17.631Z,1608
2016-12-03T13:01:17.709Z,1596
2016-12-03T13:02:17.740Z,1584
2016-12-03T13:03:17.813Z,1572
2016-12-03T13:04:17.852Z,1560
2016-12-03T13:05:17.918Z,1548
2016-12-03T13:06:18.025Z,1536
2016-12-03T13:07:18.039Z,1528
2016-12-03T13:08:18.116Z,1512
2016-12-03T13:09:18.134Z,1504
2016-12-03T13:10:18.198Z,1496
2016-12-03T13:11:18.254Z,1484
2016-12-03T13:12:18.347Z,1472
2016-12-03T13:13:18.390Z,1464
2016-12-03T13:14:18.420Z,1456
2016-12-03T13:15:18.508Z,1444
2016-12-03T13:16:18.562Z,1436
2016-12-03T13:17:18.588Z,1420
2016-12-03T13:18:18.662Z,1408
2016-12-03T13:19:18.727Z,1396
2016-12-03T13:20:18.769Z,1388
2016-12-03T13:21:18.818Z,1376
2016-12-03T13:22:18.914Z,1368
2016-12-03T13:23:18.941Z,1360
2016-12-03T13:24:19.010Z,1348
2016-12-03T13:25:19.081Z,1336
2016-12-03T13:26:19.123Z,1328
2016-12-03T13:27:19.180Z,1316
2016-12-03T13:28:19.247Z,1308
2016-12-03T13:29:19.274Z,1300
2016-12-03T13:30:19.343Z,1292
2016-12-03T13:31:19.414Z,1284
2016-12-03T13:32:19.450Z,1276
2016-12-03T13:33:19.524Z,1272
2016-12-03T13:34:19.596Z,1264
2016-12-03T13:35:19.653Z,1260
2016-12-03T13:36:19.693Z,1252
2016-12-03T13:37:19.731Z,1248
2016-12-03T13:38:19.788Z,1244
2016-12-03T13:39:19.866Z,1236
2016-12-03T13:40:19.918Z,1232
2016-12-03T13:41:19.992Z,1224
2016-12-03T13:42:20.035Z,1220
2016-12-03T13:43:20.080Z,1216
2016-12-03T13:44:20.149Z,1208
2016-12-03T13:45:20.198Z,1204
2016-12-03T13:46:20.279Z,1196
2016-12-03T13:47:20.624Z,1192
2016-12-03T13:48:20.374Z,1188
2016-12-03T13:49:20.424Z,1180
2016-12-03T13:50:20.488Z,1176
2016-12-03T13:51:20.545Z,1172
2016-12-03T13:52:20.595Z,1164
2016-12-03T13:53:20.639Z,1156
2016-12-03T13:54:20.719Z,1148
2016-12-03T13:55:20.767Z,1132
2016-12-03T13:56:20.843Z,1120
2016-12-03T13:57:20.881Z,1036
2016-12-03T13:58:20.924Z,760
2016-12-03T13:59:20.983Z,444
2016-12-03T14:00:21.053Z,288
2016-12-03T14:01:21.095Z,284
2016-12-03T14:02:21.166Z,280
2016-12-03T14:03:21.217Z,280
2016-12-03T14:04:21.281Z,272
2016-12-03T14:05:21.330Z,272